sensor_id;sensor_type;location;lat;lon;timestamp;P1;durP1;ratioP1;P2;durP2;ratioP2
43042;SDS011;28667;50.758;6.096;2024-01-15T00:00:13;32.88;;;11.73;;
43042;SDS011;28667;50.758;6.096;2024-01-15T00:02:39;29.50;;;10.68;;
43042;SDS011;28667;50.758;6.096;2024-01-15T00:05:05;37.67;;;12.13;;
43042;SDS011;28667;50.758;6.096;2024-01-15T00:07:31;39.15;;;11.25;;
43042;SDS011;28667;50.758;6.096;2024-01-15T00:09:56;38.63;;;11.00;;
43042;SDS011;28667;50.758;6.096;2024-01-15T00:12:22;34.10;;;11.23;;
43042;SDS011;28667;50.758;6.096;2024-01-15T00:14:48;32.47;;;11.68;;
43042;SDS011;28667;50.758;6.096;2024-01-15T00:17:13;26.95;;;11.07;;
43042;SDS011;28667;50.758;6.096;2024-01-15T00:19:39;36.70;;;12.10;;
43042;SDS011;28667;50.758;6.096;2024-01-15T00:22:05;40.58;;;11.30;;
43042;SDS011;28667;50.758;6.096;2024-01-15T00:24:30;38.63;;;10.85;;
43042;SDS011;28667;50.758;6.096;2024-01-15T00:26:56;38.85;;;11.68;;
43042;SDS011;28667;50.758;6.096;2024-01-15T00:29:22;35.38;;;10.55;;
43042;SDS011;28667;50.758;6.096;2024-01-15T00:31:48;29.52;;;11.23;;
43042;SDS011;28667;50.758;6.096;2024-01-15T00:34:13;37.42;;;10.95;;
43042;SDS011;28667;50.758;6.096;2024-01-15T00:36:39;32.17;;;10.20;;
43042;SDS011;28667;50.758;6.096;2024-01-15T00:39:05;35.22;;;11.70;;
43042;SDS011;28667;50.758;6.096;2024-01-15T00:41:31;34.40;;;10.60;;
43042;SDS011;28667;50.758;6.096;2024-01-15T00:43:56;36.35;;;10.90;;
43042;SDS011;28667;50.758;6.096;2024-01-15T00:46:22;38.22;;;11.57;;
43042;SDS011;28667;50.758;6.096;2024-01-15T00:48:48;35.72;;;12.38;;
43042;SDS011;28667;50.758;6.096;2024-01-15T00:51:14;32.25;;;10.70;;
43042;SDS011;28667;50.758;6.096;2024-01-15T00:53:39;40.50;;;11.50;;
43042;SDS011;28667;50.758;6.096;2024-01-15T00:56:05;39.05;;;9.98;;
43042;SDS011;28667;50.758;6.096;2024-01-15T00:58:31;29.75;;;10.85;;
43042;SDS011;28667;50.758;6.096;2024-01-15T01:00:57;35.25;;;11.07;;
43042;SDS011;28667;50.758;6.096;2024-01-15T01:03:22;30.02;;;10.63;;
43042;SDS011;28667;50.758;6.096;2024-01-15T01:05:48;36.05;;;11.38;;
43042;SDS011;28667;50.758;6.096;2024-01-15T01:08:15;31.92;;;11.15;;
43042;SDS011;28667;50.758;6.096;2024-01-15T01:10:41;30.83;;;10.40;;
43042;SDS011;28667;50.758;6.096;2024-01-15T01:13:08;34.40;;;13.02;;
43042;SDS011;28667;50.758;6.096;2024-01-15T01:15:34;28.73;;;11.18;;
43042;SDS011;28667;50.758;6.096;2024-01-15T01:18:00;25.20;;;9.88;;
43042;SDS011;28667;50.758;6.096;2024-01-15T01:20:25;31.20;;;11.48;;
43042;SDS011;28667;50.758;6.096;2024-01-15T01:22:51;33.22;;;11.57;;
43042;SDS011;28667;50.758;6.096;2024-01-15T01:25:17;34.97;;;11.43;;
43042;SDS011;28667;50.758;6.096;2024-01-15T01:27:42;37.92;;;11.52;;
43042;SDS011;28667;50.758;6.096;2024-01-15T01:30:08;31.38;;;10.82;;
43042;SDS011;28667;50.758;6.096;2024-01-15T01:32:34;33.25;;;11.57;;
43042;SDS011;28667;50.758;6.096;2024-01-15T01:35:00;31.48;;;12.30;;
43042;SDS011;28667;50.758;6.096;2024-01-15T01:37:26;41.92;;;13.43;;
43042;SDS011;28667;50.758;6.096;2024-01-15T01:39:52;40.53;;;13.18;;
43042;SDS011;28667;50.758;6.096;2024-01-15T01:42:17;28.25;;;11.13;;
43042;SDS011;28667;50.758;6.096;2024-01-15T01:44:43;39.20;;;12.93;;
43042;SDS011;28667;50.758;6.096;2024-01-15T01:47:09;34.55;;;11.88;;
43042;SDS011;28667;50.758;6.096;2024-01-15T01:49:35;39.90;;;13.63;;
43042;SDS011;28667;50.758;6.096;2024-01-15T01:52:02;36.75;;;13.05;;
43042;SDS011;28667;50.758;6.096;2024-01-15T01:54:31;39.80;;;13.25;;
43042;SDS011;28667;50.758;6.096;2024-01-15T01:56:58;36.97;;;12.90;;
43042;SDS011;28667;50.758;6.096;2024-01-15T01:59:25;38.85;;;12.30;;
43042;SDS011;28667;50.758;6.096;2024-01-15T02:01:53;39.03;;;13.25;;
43042;SDS011;28667;50.758;6.096;2024-01-15T02:04:20;30.95;;;11.68;;
43042;SDS011;28667;50.758;6.096;2024-01-15T02:06:50;42.90;;;12.95;;
43042;SDS011;28667;50.758;6.096;2024-01-15T02:09:17;37.83;;;12.27;;
43042;SDS011;28667;50.758;6.096;2024-01-15T02:11:43;45.97;;;14.27;;
43042;SDS011;28667;50.758;6.096;2024-01-15T02:14:11;37.10;;;12.55;;
43042;SDS011;28667;50.758;6.096;2024-01-15T02:16:37;37.63;;;12.98;;
43042;SDS011;28667;50.758;6.096;2024-01-15T02:19:03;43.70;;;13.90;;
43042;SDS011;28667;50.758;6.096;2024-01-15T02:21:28;43.47;;;14.02;;
43042;SDS011;28667;50.758;6.096;2024-01-15T02:23:55;37.58;;;13.10;;
43042;SDS011;28667;50.758;6.096;2024-01-15T02:26:21;44.33;;;15.07;;
43042;SDS011;28667;50.758;6.096;2024-01-15T02:28:47;41.05;;;14.07;;
43042;SDS011;28667;50.758;6.096;2024-01-15T02:33:42;40.92;;;14.07;;
43042;SDS011;28667;50.758;6.096;2024-01-15T02:36:08;40.75;;;15.10;;
43042;SDS011;28667;50.758;6.096;2024-01-15T02:38:35;38.58;;;14.63;;
43042;SDS011;28667;50.758;6.096;2024-01-15T02:41:01;40.45;;;14.38;;
43042;SDS011;28667;50.758;6.096;2024-01-15T02:43:27;40.35;;;13.05;;
43042;SDS011;28667;50.758;6.096;2024-01-15T02:45:52;36.40;;;14.18;;
43042;SDS011;28667;50.758;6.096;2024-01-15T02:48:18;37.40;;;14.80;;
43042;SDS011;28667;50.758;6.096;2024-01-15T02:50:44;39.72;;;13.95;;
43042;SDS011;28667;50.758;6.096;2024-01-15T02:53:09;40.63;;;14.50;;
43042;SDS011;28667;50.758;6.096;2024-01-15T02:55:35;35.33;;;12.20;;
43042;SDS011;28667;50.758;6.096;2024-01-15T02:58:01;39.90;;;14.10;;
43042;SDS011;28667;50.758;6.096;2024-01-15T03:00:26;36.85;;;12.88;;
43042;SDS011;28667;50.758;6.096;2024-01-15T03:02:52;31.02;;;11.80;;
43042;SDS011;28667;50.758;6.096;2024-01-15T03:05:18;29.90;;;12.90;;
43042;SDS011;28667;50.758;6.096;2024-01-15T03:07:44;35.70;;;13.30;;
43042;SDS011;28667;50.758;6.096;2024-01-15T03:10:09;29.75;;;11.50;;
43042;SDS011;28667;50.758;6.096;2024-01-15T03:12:35;30.90;;;11.98;;
43042;SDS011;28667;50.758;6.096;2024-01-15T03:15:01;30.80;;;11.02;;
43042;SDS011;28667;50.758;6.096;2024-01-15T03:17:27;25.95;;;10.95;;
43042;SDS011;28667;50.758;6.096;2024-01-15T03:19:52;25.75;;;10.20;;
43042;SDS011;28667;50.758;6.096;2024-01-15T03:22:18;27.65;;;10.93;;
43042;SDS011;28667;50.758;6.096;2024-01-15T03:24:44;27.88;;;10.82;;
43042;SDS011;28667;50.758;6.096;2024-01-15T03:27:10;30.20;;;11.95;;
43042;SDS011;28667;50.758;6.096;2024-01-15T03:29:36;34.00;;;11.80;;
43042;SDS011;28667;50.758;6.096;2024-01-15T03:32:01;30.50;;;12.63;;
43042;SDS011;28667;50.758;6.096;2024-01-15T03:34:27;29.40;;;13.20;;
43042;SDS011;28667;50.758;6.096;2024-01-15T03:36:53;31.75;;;11.68;;
43042;SDS011;28667;50.758;6.096;2024-01-15T03:39:19;27.63;;;11.10;;
43042;SDS011;28667;50.758;6.096;2024-01-15T03:41:45;30.05;;;11.05;;
43042;SDS011;28667;50.758;6.096;2024-01-15T03:44:10;36.08;;;13.20;;
43042;SDS011;28667;50.758;6.096;2024-01-15T03:46:36;35.22;;;12.38;;
43042;SDS011;28667;50.758;6.096;2024-01-15T03:49:02;30.65;;;12.80;;
43042;SDS011;28667;50.758;6.096;2024-01-15T03:51:27;27.88;;;10.27;;
43042;SDS011;28667;50.758;6.096;2024-01-15T03:53:53;31.30;;;12.23;;
43042;SDS011;28667;50.758;6.096;2024-01-15T03:56:19;29.40;;;10.77;;
43042;SDS011;28667;50.758;6.096;2024-01-15T03:58:44;34.03;;;12.25;;
43042;SDS011;28667;50.758;6.096;2024-01-15T04:01:10;32.38;;;11.82;;
43042;SDS011;28667;50.758;6.096;2024-01-15T04:03:36;29.77;;;11.43;;
43042;SDS011;28667;50.758;6.096;2024-01-15T04:06:02;35.63;;;12.38;;
43042;SDS011;28667;50.758;6.096;2024-01-15T04:08:29;34.05;;;11.85;;
43042;SDS011;28667;50.758;6.096;2024-01-15T04:10:55;32.92;;;12.80;;
43042;SDS011;28667;50.758;6.096;2024-01-15T04:13:21;34.22;;;12.85;;
43042;SDS011;28667;50.758;6.096;2024-01-15T04:15:46;31.67;;;11.75;;
43042;SDS011;28667;50.758;6.096;2024-01-15T04:18:12;26.63;;;12.57;;
43042;SDS011;28667;50.758;6.096;2024-01-15T04:20:38;30.45;;;13.00;;
43042;SDS011;28667;50.758;6.096;2024-01-15T04:23:04;31.02;;;12.80;;
43042;SDS011;28667;50.758;6.096;2024-01-15T04:25:30;35.78;;;13.82;;
43042;SDS011;28667;50.758;6.096;2024-01-15T04:27:56;35.30;;;13.15;;
43042;SDS011;28667;50.758;6.096;2024-01-15T04:30:22;38.00;;;12.90;;
43042;SDS011;28667;50.758;6.096;2024-01-15T04:32:47;34.35;;;12.07;;
43042;SDS011;28667;50.758;6.096;2024-01-15T04:35:13;37.67;;;14.60;;
43042;SDS011;28667;50.758;6.096;2024-01-15T04:37:39;35.20;;;12.40;;
43042;SDS011;28667;50.758;6.096;2024-01-15T04:40:06;41.83;;;12.43;;
43042;SDS011;28667;50.758;6.096;2024-01-15T04:42:32;39.03;;;14.40;;
43042;SDS011;28667;50.758;6.096;2024-01-15T04:44:58;30.27;;;12.15;;
43042;SDS011;28667;50.758;6.096;2024-01-15T04:47:24;28.42;;;11.68;;
43042;SDS011;28667;50.758;6.096;2024-01-15T04:49:49;30.42;;;13.30;;
43042;SDS011;28667;50.758;6.096;2024-01-15T04:52:16;29.27;;;13.65;;
43042;SDS011;28667;50.758;6.096;2024-01-15T04:54:41;30.23;;;13.48;;
43042;SDS011;28667;50.758;6.096;2024-01-15T04:57:07;35.55;;;13.82;;
43042;SDS011;28667;50.758;6.096;2024-01-15T04:59:33;31.75;;;13.07;;
43042;SDS011;28667;50.758;6.096;2024-01-15T05:01:59;31.60;;;12.45;;
43042;SDS011;28667;50.758;6.096;2024-01-15T05:04:24;38.45;;;13.55;;
43042;SDS011;28667;50.758;6.096;2024-01-15T05:06:50;43.13;;;14.48;;
43042;SDS011;28667;50.758;6.096;2024-01-15T05:09:16;31.50;;;12.90;;
43042;SDS011;28667;50.758;6.096;2024-01-15T05:11:43;35.13;;;14.23;;
43042;SDS011;28667;50.758;6.096;2024-01-15T05:14:09;32.90;;;13.05;;
43042;SDS011;28667;50.758;6.096;2024-01-15T05:16:35;33.15;;;11.57;;
43042;SDS011;28667;50.758;6.096;2024-01-15T05:19:03;31.75;;;11.73;;
43042;SDS011;28667;50.758;6.096;2024-01-15T05:21:29;31.45;;;12.15;;
43042;SDS011;28667;50.758;6.096;2024-01-15T05:23:55;26.77;;;11.88;;
43042;SDS011;28667;50.758;6.096;2024-01-15T05:26:20;24.83;;;10.57;;
43042;SDS011;28667;50.758;6.096;2024-01-15T05:28:46;26.95;;;10.90;;
43042;SDS011;28667;50.758;6.096;2024-01-15T05:31:12;27.10;;;10.43;;
43042;SDS011;28667;50.758;6.096;2024-01-15T05:33:37;22.48;;;9.52;;
43042;SDS011;28667;50.758;6.096;2024-01-15T05:36:03;33.35;;;11.43;;
43042;SDS011;28667;50.758;6.096;2024-01-15T05:38:29;28.33;;;11.88;;
43042;SDS011;28667;50.758;6.096;2024-01-15T05:40:55;25.20;;;11.40;;
43042;SDS011;28667;50.758;6.096;2024-01-15T05:43:20;32.05;;;10.65;;
43042;SDS011;28667;50.758;6.096;2024-01-15T05:45:46;25.65;;;10.38;;
43042;SDS011;28667;50.758;6.096;2024-01-15T05:48:12;24.45;;;11.20;;
43042;SDS011;28667;50.758;6.096;2024-01-15T05:50:38;26.25;;;10.88;;
43042;SDS011;28667;50.758;6.096;2024-01-15T05:53:04;28.48;;;10.98;;
43042;SDS011;28667;50.758;6.096;2024-01-15T05:55:30;33.30;;;12.07;;
43042;SDS011;28667;50.758;6.096;2024-01-15T05:57:56;27.17;;;11.60;;
43042;SDS011;28667;50.758;6.096;2024-01-15T06:00:21;29.65;;;12.32;;
43042;SDS011;28667;50.758;6.096;2024-01-15T06:02:47;28.88;;;12.80;;
43042;SDS011;28667;50.758;6.096;2024-01-15T06:05:13;28.50;;;11.93;;
43042;SDS011;28667;50.758;6.096;2024-01-15T06:07:39;29.38;;;12.15;;
43042;SDS011;28667;50.758;6.096;2024-01-15T06:10:05;32.65;;;12.85;;
43042;SDS011;28667;50.758;6.096;2024-01-15T06:12:31;28.80;;;11.55;;
43042;SDS011;28667;50.758;6.096;2024-01-15T06:14:58;27.90;;;11.77;;
43042;SDS011;28667;50.758;6.096;2024-01-15T06:17:24;27.50;;;11.82;;
43042;SDS011;28667;50.758;6.096;2024-01-15T06:19:50;28.75;;;11.45;;
43042;SDS011;28667;50.758;6.096;2024-01-15T06:22:16;25.80;;;11.43;;
43042;SDS011;28667;50.758;6.096;2024-01-15T06:24:41;38.10;;;12.32;;
43042;SDS011;28667;50.758;6.096;2024-01-15T06:27:07;28.83;;;12.02;;
43042;SDS011;28667;50.758;6.096;2024-01-15T06:29:33;30.10;;;11.35;;
43042;SDS011;28667;50.758;6.096;2024-01-15T06:32:02;31.63;;;11.18;;
43042;SDS011;28667;50.758;6.096;2024-01-15T06:34:28;32.63;;;12.20;;
43042;SDS011;28667;50.758;6.096;2024-01-15T06:36:54;30.73;;;12.70;;
43042;SDS011;28667;50.758;6.096;2024-01-15T06:39:19;29.98;;;12.27;;
43042;SDS011;28667;50.758;6.096;2024-01-15T06:41:45;32.30;;;11.75;;
43042;SDS011;28667;50.758;6.096;2024-01-15T06:44:11;30.92;;;11.95;;
43042;SDS011;28667;50.758;6.096;2024-01-15T06:46:41;28.60;;;12.02;;
43042;SDS011;28667;50.758;6.096;2024-01-15T06:49:08;25.70;;;11.10;;
43042;SDS011;28667;50.758;6.096;2024-01-15T06:51:33;29.13;;;11.63;;
43042;SDS011;28667;50.758;6.096;2024-01-15T06:53:59;36.00;;;12.40;;
43042;SDS011;28667;50.758;6.096;2024-01-15T06:56:25;30.27;;;12.85;;
43042;SDS011;28667;50.758;6.096;2024-01-15T06:58:51;32.60;;;13.07;;
43042;SDS011;28667;50.758;6.096;2024-01-15T07:01:16;26.70;;;10.50;;
43042;SDS011;28667;50.758;6.096;2024-01-15T07:03:42;30.05;;;11.77;;
43042;SDS011;28667;50.758;6.096;2024-01-15T07:06:08;33.95;;;13.45;;
43042;SDS011;28667;50.758;6.096;2024-01-15T07:08:34;42.15;;;12.70;;
43042;SDS011;28667;50.758;6.096;2024-01-15T07:10:59;35.05;;;13.55;;
43042;SDS011;28667;50.758;6.096;2024-01-15T07:13:29;39.92;;;13.88;;
43042;SDS011;28667;50.758;6.096;2024-01-15T07:15:54;37.38;;;13.20;;
43042;SDS011;28667;50.758;6.096;2024-01-15T07:18:20;31.25;;;13.48;;
43042;SDS011;28667;50.758;6.096;2024-01-15T07:20:46;34.50;;;13.57;;
43042;SDS011;28667;50.758;6.096;2024-01-15T07:23:11;29.00;;;12.65;;
43042;SDS011;28667;50.758;6.096;2024-01-15T07:25:37;35.60;;;12.32;;
43042;SDS011;28667;50.758;6.096;2024-01-15T07:28:03;31.10;;;12.60;;
43042;SDS011;28667;50.758;6.096;2024-01-15T07:30:29;30.08;;;11.90;;
43042;SDS011;28667;50.758;6.096;2024-01-15T07:32:55;31.73;;;11.52;;
43042;SDS011;28667;50.758;6.096;2024-01-15T07:35:20;27.08;;;11.90;;
43042;SDS011;28667;50.758;6.096;2024-01-15T07:37:46;32.17;;;12.55;;
43042;SDS011;28667;50.758;6.096;2024-01-15T07:40:12;28.55;;;10.63;;
43042;SDS011;28667;50.758;6.096;2024-01-15T07:42:37;26.75;;;10.95;;
43042;SDS011;28667;50.758;6.096;2024-01-15T07:45:04;25.08;;;10.32;;
43042;SDS011;28667;50.758;6.096;2024-01-15T07:47:30;29.30;;;10.35;;
43042;SDS011;28667;50.758;6.096;2024-01-15T07:49:55;25.35;;;10.93;;
43042;SDS011;28667;50.758;6.096;2024-01-15T07:52:21;27.88;;;11.05;;
43042;SDS011;28667;50.758;6.096;2024-01-15T07:54:47;22.50;;;10.15;;
43042;SDS011;28667;50.758;6.096;2024-01-15T07:57:13;28.05;;;10.13;;
43042;SDS011;28667;50.758;6.096;2024-01-15T07:59:38;28.98;;;9.73;;
43042;SDS011;28667;50.758;6.096;2024-01-15T08:02:05;19.08;;;9.23;;
43042;SDS011;28667;50.758;6.096;2024-01-15T08:04:31;22.65;;;9.80;;
43042;SDS011;28667;50.758;6.096;2024-01-15T08:06:57;18.70;;;8.80;;
43042;SDS011;28667;50.758;6.096;2024-01-15T08:09:23;21.40;;;9.90;;
43042;SDS011;28667;50.758;6.096;2024-01-15T08:11:49;24.80;;;9.38;;
43042;SDS011;28667;50.758;6.096;2024-01-15T08:14:14;16.80;;;8.52;;
43042;SDS011;28667;50.758;6.096;2024-01-15T08:16:40;18.17;;;8.10;;
43042;SDS011;28667;50.758;6.096;2024-01-15T08:19:06;16.55;;;7.25;;
43042;SDS011;28667;50.758;6.096;2024-01-15T08:21:32;18.77;;;8.05;;
43042;SDS011;28667;50.758;6.096;2024-01-15T08:23:59;19.40;;;7.82;;
43042;SDS011;28667;50.758;6.096;2024-01-15T08:26:26;19.23;;;7.88;;
43042;SDS011;28667;50.758;6.096;2024-01-15T08:28:51;17.55;;;7.90;;
43042;SDS011;28667;50.758;6.096;2024-01-15T08:31:17;18.30;;;6.95;;
43042;SDS011;28667;50.758;6.096;2024-01-15T08:33:43;15.82;;;7.30;;
43042;SDS011;28667;50.758;6.096;2024-01-15T08:36:09;15.15;;;7.75;;
43042;SDS011;28667;50.758;6.096;2024-01-15T08:38:35;17.67;;;7.55;;
43042;SDS011;28667;50.758;6.096;2024-01-15T08:41:00;13.13;;;6.40;;
43042;SDS011;28667;50.758;6.096;2024-01-15T08:43:27;15.45;;;5.88;;
43042;SDS011;28667;50.758;6.096;2024-01-15T08:45:52;18.92;;;6.28;;
43042;SDS011;28667;50.758;6.096;2024-01-15T08:48:18;12.27;;;5.70;;
43042;SDS011;28667;50.758;6.096;2024-01-15T08:50:44;14.48;;;6.18;;
43042;SDS011;28667;50.758;6.096;2024-01-15T08:53:13;12.43;;;5.95;;
43042;SDS011;28667;50.758;6.096;2024-01-15T08:55:40;12.15;;;6.07;;
43042;SDS011;28667;50.758;6.096;2024-01-15T08:58:07;12.48;;;5.88;;
43042;SDS011;28667;50.758;6.096;2024-01-15T09:00:33;12.70;;;6.30;;
43042;SDS011;28667;50.758;6.096;2024-01-15T09:02:59;12.48;;;6.15;;
43042;SDS011;28667;50.758;6.096;2024-01-15T09:05:25;15.60;;;6.60;;
43042;SDS011;28667;50.758;6.096;2024-01-15T09:07:51;13.45;;;6.15;;
43042;SDS011;28667;50.758;6.096;2024-01-15T09:10:17;12.00;;;5.68;;
43042;SDS011;28667;50.758;6.096;2024-01-15T09:12:44;18.23;;;6.82;;
43042;SDS011;28667;50.758;6.096;2024-01-15T09:15:10;12.95;;;5.72;;
43042;SDS011;28667;50.758;6.096;2024-01-15T09:17:35;12.43;;;5.85;;
43042;SDS011;28667;50.758;6.096;2024-01-15T09:20:01;13.73;;;5.88;;
43042;SDS011;28667;50.758;6.096;2024-01-15T09:22:29;11.65;;;5.50;;
43042;SDS011;28667;50.758;6.096;2024-01-15T09:24:55;14.00;;;5.70;;
43042;SDS011;28667;50.758;6.096;2024-01-15T09:27:21;9.80;;;5.28;;
43042;SDS011;28667;50.758;6.096;2024-01-15T09:29:46;8.45;;;4.55;;
43042;SDS011;28667;50.758;6.096;2024-01-15T09:32:12;16.27;;;5.85;;
43042;SDS011;28667;50.758;6.096;2024-01-15T09:34:38;12.30;;;5.45;;
43042;SDS011;28667;50.758;6.096;2024-01-15T09:37:04;10.05;;;5.18;;
43042;SDS011;28667;50.758;6.096;2024-01-15T09:39:30;14.75;;;5.80;;
43042;SDS011;28667;50.758;6.096;2024-01-15T09:41:57;11.23;;;5.28;;
43042;SDS011;28667;50.758;6.096;2024-01-15T09:44:23;14.25;;;6.05;;
43042;SDS011;28667;50.758;6.096;2024-01-15T09:46:49;15.45;;;6.18;;
43042;SDS011;28667;50.758;6.096;2024-01-15T09:49:16;14.40;;;5.78;;
43042;SDS011;28667;50.758;6.096;2024-01-15T09:51:42;13.15;;;5.68;;
43042;SDS011;28667;50.758;6.096;2024-01-15T09:54:08;14.25;;;6.05;;
43042;SDS011;28667;50.758;6.096;2024-01-15T09:56:34;13.32;;;6.18;;
43042;SDS011;28667;50.758;6.096;2024-01-15T09:59:03;13.23;;;5.88;;
43042;SDS011;28667;50.758;6.096;2024-01-15T10:01:32;15.20;;;6.85;;
43042;SDS011;28667;50.758;6.096;2024-01-15T10:03:59;14.63;;;6.78;;
43042;SDS011;28667;50.758;6.096;2024-01-15T10:06:26;12.48;;;6.35;;
43042;SDS011;28667;50.758;6.096;2024-01-15T10:08:56;13.32;;;6.82;;
43042;SDS011;28667;50.758;6.096;2024-01-15T10:11:23;12.90;;;5.68;;
43042;SDS011;28667;50.758;6.096;2024-01-15T10:13:49;12.43;;;6.55;;
43042;SDS011;28667;50.758;6.096;2024-01-15T10:16:21;13.13;;;6.78;;
43042;SDS011;28667;50.758;6.096;2024-01-15T10:18:47;15.38;;;7.63;;
43042;SDS011;28667;50.758;6.096;2024-01-15T10:21:16;16.60;;;6.97;;
43042;SDS011;28667;50.758;6.096;2024-01-15T10:23:42;15.05;;;7.72;;
43042;SDS011;28667;50.758;6.096;2024-01-15T10:26:08;16.83;;;7.80;;
43042;SDS011;28667;50.758;6.096;2024-01-15T10:28:34;13.90;;;7.57;;
43042;SDS011;28667;50.758;6.096;2024-01-15T10:30:59;14.45;;;7.55;;
43042;SDS011;28667;50.758;6.096;2024-01-15T10:33:25;13.43;;;6.60;;
43042;SDS011;28667;50.758;6.096;2024-01-15T10:35:55;10.48;;;5.78;;
43042;SDS011;28667;50.758;6.096;2024-01-15T10:38:24;15.05;;;7.57;;
43042;SDS011;28667;50.758;6.096;2024-01-15T10:40:53;19.70;;;7.05;;
43042;SDS011;28667;50.758;6.096;2024-01-15T10:43:20;14.57;;;7.33;;
43042;SDS011;28667;50.758;6.096;2024-01-15T10:45:46;10.60;;;5.32;;
43042;SDS011;28667;50.758;6.096;2024-01-15T10:48:17;9.60;;;5.63;;
43042;SDS011;28667;50.758;6.096;2024-01-15T10:50:44;13.40;;;7.20;;
43042;SDS011;28667;50.758;6.096;2024-01-15T10:53:12;12.45;;;7.05;;
43042;SDS011;28667;50.758;6.096;2024-01-15T10:55:40;9.07;;;5.05;;
43042;SDS011;28667;50.758;6.096;2024-01-15T10:58:07;10.38;;;4.85;;
43042;SDS011;28667;50.758;6.096;2024-01-15T11:00:37;12.82;;;5.68;;
43042;SDS011;28667;50.758;6.096;2024-01-15T11:03:04;11.65;;;5.10;;
43042;SDS011;28667;50.758;6.096;2024-01-15T11:05:36;10.00;;;5.05;;
43042;SDS011;28667;50.758;6.096;2024-01-15T11:08:06;13.85;;;4.45;;
43042;SDS011;28667;50.758;6.096;2024-01-15T11:10:39;8.45;;;4.00;;
43042;SDS011;28667;50.758;6.096;2024-01-15T11:15:59;8.20;;;4.10;;
43042;SDS011;28667;50.758;6.096;2024-01-15T11:18:29;8.30;;;4.95;;
43042;SDS011;28667;50.758;6.096;2024-01-15T11:29:02;8.40;;;3.55;;
43042;SDS011;28667;50.758;6.096;2024-01-15T11:31:56;7.10;;;3.72;;
43042;SDS011;28667;50.758;6.096;2024-01-15T11:34:21;6.57;;;3.45;;
43042;SDS011;28667;50.758;6.096;2024-01-15T11:37:22;8.48;;;3.30;;
43042;SDS011;28667;50.758;6.096;2024-01-15T11:39:50;5.47;;;3.28;;
43042;SDS011;28667;50.758;6.096;2024-01-15T11:42:23;8.02;;;3.55;;
43042;SDS011;28667;50.758;6.096;2024-01-15T11:44:49;6.78;;;3.20;;
43042;SDS011;28667;50.758;6.096;2024-01-15T11:47:15;10.57;;;4.00;;
43042;SDS011;28667;50.758;6.096;2024-01-15T11:52:21;9.90;;;3.78;;
43042;SDS011;28667;50.758;6.096;2024-01-15T11:57:53;7.90;;;3.28;;
43042;SDS011;28667;50.758;6.096;2024-01-15T12:00:20;8.90;;;3.10;;
43042;SDS011;28667;50.758;6.096;2024-01-15T12:02:47;4.90;;;3.22;;
43042;SDS011;28667;50.758;6.096;2024-01-15T12:05:14;6.68;;;2.90;;
43042;SDS011;28667;50.758;6.096;2024-01-15T12:07:41;5.38;;;2.88;;
43042;SDS011;28667;50.758;6.096;2024-01-15T12:10:11;9.10;;;3.28;;
43042;SDS011;28667;50.758;6.096;2024-01-15T12:15:20;5.30;;;3.00;;
43042;SDS011;28667;50.758;6.096;2024-01-15T12:17:46;6.82;;;2.67;;
43042;SDS011;28667;50.758;6.096;2024-01-15T12:20:12;9.93;;;2.67;;
43042;SDS011;28667;50.758;6.096;2024-01-15T12:22:38;4.63;;;2.33;;
43042;SDS011;28667;50.758;6.096;2024-01-15T12:25:04;6.95;;;2.33;;
43042;SDS011;28667;50.758;6.096;2024-01-15T12:27:30;5.72;;;2.65;;
43042;SDS011;28667;50.758;6.096;2024-01-15T12:29:57;6.07;;;2.40;;
43042;SDS011;28667;50.758;6.096;2024-01-15T12:32:24;8.07;;;2.53;;
43042;SDS011;28667;50.758;6.096;2024-01-15T12:34:50;5.15;;;2.17;;
43042;SDS011;28667;50.758;6.096;2024-01-15T12:37:19;5.82;;;2.45;;
43042;SDS011;28667;50.758;6.096;2024-01-15T12:39:45;7.35;;;2.55;;
43042;SDS011;28667;50.758;6.096;2024-01-15T12:42:11;5.82;;;2.22;;
43042;SDS011;28667;50.758;6.096;2024-01-15T12:44:39;7.55;;;2.00;;
43042;SDS011;28667;50.758;6.096;2024-01-15T12:47:05;5.82;;;2.85;;
43042;SDS011;28667;50.758;6.096;2024-01-15T12:49:30;6.18;;;2.75;;
43042;SDS011;28667;50.758;6.096;2024-01-15T12:51:57;5.93;;;2.20;;
43042;SDS011;28667;50.758;6.096;2024-01-15T12:54:23;5.95;;;2.10;;
43042;SDS011;28667;50.758;6.096;2024-01-15T12:56:50;7.40;;;2.58;;
43042;SDS011;28667;50.758;6.096;2024-01-15T12:59:16;5.95;;;2.92;;
43042;SDS011;28667;50.758;6.096;2024-01-15T13:01:43;8.45;;;2.95;;
43042;SDS011;28667;50.758;6.096;2024-01-15T13:04:09;6.63;;;2.50;;
43042;SDS011;28667;50.758;6.096;2024-01-15T13:06:35;5.18;;;2.72;;
43042;SDS011;28667;50.758;6.096;2024-01-15T13:09:02;6.78;;;2.95;;
43042;SDS011;28667;50.758;6.096;2024-01-15T13:11:33;5.22;;;2.85;;
43042;SDS011;28667;50.758;6.096;2024-01-15T13:13:59;4.13;;;2.33;;
43042;SDS011;28667;50.758;6.096;2024-01-15T13:16:25;6.28;;;2.95;;
43042;SDS011;28667;50.758;6.096;2024-01-15T13:18:54;4.30;;;2.67;;
43042;SDS011;28667;50.758;6.096;2024-01-15T13:21:21;5.03;;;2.78;;
43042;SDS011;28667;50.758;6.096;2024-01-15T13:23:47;4.43;;;2.85;;
43042;SDS011;28667;50.758;6.096;2024-01-15T13:26:13;4.32;;;2.45;;
43042;SDS011;28667;50.758;6.096;2024-01-15T13:28:39;5.15;;;3.38;;
43042;SDS011;28667;50.758;6.096;2024-01-15T13:31:05;4.35;;;2.70;;
43042;SDS011;28667;50.758;6.096;2024-01-15T13:33:30;3.17;;;2.75;;
43042;SDS011;28667;50.758;6.096;2024-01-15T13:35:56;6.35;;;2.67;;
43042;SDS011;28667;50.758;6.096;2024-01-15T13:38:22;3.13;;;2.42;;
43042;SDS011;28667;50.758;6.096;2024-01-15T13:40:49;5.28;;;2.28;;
43042;SDS011;28667;50.758;6.096;2024-01-15T13:43:15;4.80;;;2.25;;
43042;SDS011;28667;50.758;6.096;2024-01-15T13:45:41;2.92;;;2.08;;
43042;SDS011;28667;50.758;6.096;2024-01-15T13:48:07;4.25;;;2.25;;
43042;SDS011;28667;50.758;6.096;2024-01-15T13:50:36;5.22;;;2.63;;
43042;SDS011;28667;50.758;6.096;2024-01-15T13:53:02;4.18;;;2.58;;
43042;SDS011;28667;50.758;6.096;2024-01-15T13:55:31;3.25;;;2.10;;
43042;SDS011;28667;50.758;6.096;2024-01-15T13:57:57;3.03;;;2.28;;
43042;SDS011;28667;50.758;6.096;2024-01-15T14:00:23;5.50;;;2.67;;
43042;SDS011;28667;50.758;6.096;2024-01-15T14:02:49;6.07;;;2.83;;
43042;SDS011;28667;50.758;6.096;2024-01-15T14:05:14;4.18;;;2.78;;
43042;SDS011;28667;50.758;6.096;2024-01-15T14:07:41;6.05;;;2.05;;
43042;SDS011;28667;50.758;6.096;2024-01-15T14:10:08;3.40;;;2.47;;
43042;SDS011;28667;50.758;6.096;2024-01-15T14:12:35;3.22;;;1.90;;
43042;SDS011;28667;50.758;6.096;2024-01-15T14:15:01;11.73;;;2.60;;
43042;SDS011;28667;50.758;6.096;2024-01-15T14:17:28;2.53;;;1.70;;
43042;SDS011;28667;50.758;6.096;2024-01-15T14:19:54;3.13;;;1.95;;
43042;SDS011;28667;50.758;6.096;2024-01-15T14:22:20;3.42;;;1.75;;
43042;SDS011;28667;50.758;6.096;2024-01-15T14:24:46;3.35;;;2.30;;
43042;SDS011;28667;50.758;6.096;2024-01-15T14:27:11;2.65;;;1.95;;
43042;SDS011;28667;50.758;6.096;2024-01-15T14:29:37;6.72;;;1.80;;
43042;SDS011;28667;50.758;6.096;2024-01-15T14:32:03;2.15;;;1.90;;
43042;SDS011;28667;50.758;6.096;2024-01-15T14:34:29;1.92;;;1.73;;
43042;SDS011;28667;50.758;6.096;2024-01-15T14:36:55;5.93;;;2.65;;
43042;SDS011;28667;50.758;6.096;2024-01-15T14:39:24;4.38;;;1.77;;
43042;SDS011;28667;50.758;6.096;2024-01-15T14:41:50;3.67;;;2.10;;
43042;SDS011;28667;50.758;6.096;2024-01-15T14:44:16;2.10;;;1.55;;
43042;SDS011;28667;50.758;6.096;2024-01-15T14:46:42;4.00;;;1.65;;